Time;durP1;ratioP1;P1;durP2;ratioP2;P2;SDS_P1;SDS_P2;PMS_P1;PMS_P2;Temp;Humidity;BMP_temperature;BMP_pressure;BME280_temperature;BME280_humidity;BME280_pressure;Samples;Min_cycle;Max_cycle;Signal;HPM_P1;HPM_P2
2023/10/12 00:00:27;;;;;;;14.40;4.20;;;17.90;99.90;;;;;;5076972;28;20627;-88
2023/10/12 00:02:57;;;;;;;13.60;3.85;;;17.80;99.90;;;;;;5058436;28;20253;-89
2023/10/12 00:05:28;;;;;;;15.35;4.30;;;17.80;99.90;;;;;;5075926;28;20177;-88
2023/10/12 00:07:55;;;;;;;15.05;4.43;;;17.80;99.90;;;;;;5059954;28;20188;-88
2023/10/12 00:10:22;;;;;;;14.32;3.55;;;17.80;99.90;;;;;;5076563;28;20514;-88
2023/10/12 00:12:53;;;;;;;10.07;3.72;;;17.80;99.90;;;;;;5059641;28;20184;-87
2023/10/12 00:15:28;;;;;;;12.25;3.83;;;17.80;99.90;;;;;;5076790;28;20197;-88
2023/10/12 00:17:57;;;;;;;11.55;3.67;;;17.80;99.90;;;;;;5077939;28;20168;-88
2023/10/12 00:20:35;;;;;;;8.68;3.80;;;17.70;99.90;;;;;;5061864;28;20272;-88
2023/10/12 00:23:14;;;;;;;13.65;4.05;;;17.80;99.90;;;;;;5061603;28;20239;-88
2023/10/12 00:25:47;;;;;;;10.05;3.78;;;17.70;99.90;;;;;;5062555;28;20177;-89
2023/10/12 00:28:18;;;;;;;9.00;3.95;;;17.70;99.90;;;;;;5071652;28;20176;-88
2023/10/12 00:30:49;;;;;;;12.15;4.43;;;17.60;99.90;;;;;;5072527;28;20161;-90
2023/10/12 00:33:17;;;;;;;9.88;3.90;;;17.70;99.90;;;;;;5061950;28;20173;-90
2023/10/12 00:35:59;;;;;;;11.07;3.80;;;17.60;99.90;;;;;;5061637;28;20224;-87
2023/10/12 00:38:29;;;;;;;12.95;3.72;;;17.60;99.90;;;;;;5538753;22;20683;-88
2023/10/12 00:41:03;;;;;;;6.47;3.97;;;17.60;99.90;;;;;;5038592;28;20735;-89
2023/10/12 00:43:36;;;;;;;9.48;3.67;;;17.60;99.90;;;;;;5020916;28;20627;-89
2023/10/12 00:46:16;;;;;;;12.10;3.75;;;17.60;99.90;;;;;;5020900;28;20265;-90
2023/10/12 00:48:48;;;;;;;11.55;3.92;;;17.50;99.90;;;;;;5020823;28;20600;-91
2023/10/12 00:51:16;;;;;;;12.75;4.13;;;17.50;99.90;;;;;;5021518;28;20520;-91
2023/10/12 00:53:55;;;;;;;12.32;4.38;;;17.40;99.90;;;;;;5020762;28;20200;-90
2023/10/12 00:56:43;;;;;;;9.65;3.70;;;17.50;99.90;;;;;;5020593;28;20186;-89
2023/10/12 00:59:12;;;;;;;11.13;3.97;;;17.50;99.90;;;;;;5019372;28;20179;-89
2023/10/12 01:01:38;;;;;;;14.23;4.05;;;17.50;99.90;;;;;;5020368;28;20174;-89
2023/10/12 01:04:08;;;;;;;9.43;4.30;;;17.50;99.90;;;;;;5020277;28;20228;-89
2023/10/12 01:06:34;;;;;;;8.60;3.58;;;17.50;99.90;;;;;;5020338;28;20174;-88
2023/10/12 01:09:18;;;;;;;13.25;4.65;;;17.50;99.90;;;;;;5020174;28;20224;-91
2023/10/12 01:11:49;;;;;;;14.63;4.63;;;17.40;99.90;;;;;;5020476;28;20182;-90
2023/10/12 01:14:17;;;;;;;13.20;4.38;;;17.50;99.90;;;;;;5019912;28;20348;-90
2023/10/12 01:16:46;;;;;;;9.30;3.95;;;17.50;99.90;;;;;;5020063;28;20217;-90
2023/10/12 01:19:22;;;;;;;10.63;4.65;;;17.60;99.90;;;;;;5020429;28;20261;-91
2023/10/12 01:21:54;;;;;;;13.18;3.92;;;17.80;99.90;;;;;;5020280;28;20201;-90
2023/10/12 01:24:29;;;;;;;10.13;4.30;;;17.80;99.90;;;;;;5019768;28;20244;-89
2023/10/12 01:26:56;;;;;;;12.65;3.90;;;17.80;99.90;;;;;;5019487;28;20611;-91
2023/10/12 01:29:22;;;;;;;11.40;4.60;;;17.80;99.90;;;;;;5019435;28;20617;-91
2023/10/12 01:34:52;;;;;;;7.28;4.30;;;17.70;99.90;;;;;;4982210;28;20557;-90
2023/10/12 01:37:22;;;;;;;11.38;4.60;;;17.70;99.90;;;;;;5037196;28;20171;-89
2023/10/12 01:39:57;;;;;;;12.95;4.70;;;17.60;99.90;;;;;;5019332;28;20233;-89
2023/10/12 01:42:49;;;;;;;11.20;5.18;;;17.50;99.90;;;;;;5019221;28;20189;-91
2023/10/12 01:48:05;;;;;;;11.05;5.00;;;17.40;99.90;;;;;;5037291;28;20170;-90
2023/10/12 01:50:33;;;;;;;13.23;5.65;;;17.30;99.90;;;;;;5018945;28;20320;-91
2023/10/12 01:53:00;;;;;;;13.23;5.35;;;17.30;99.90;;;;;;5018803;28;20216;-91
2023/10/12 01:55:30;;;;;;;8.82;5.18;;;17.30;99.90;;;;;;5018578;28;20206;-90
2023/10/12 01:57:56;;;;;;;9.82;5.72;;;17.30;99.90;;;;;;5018803;28;20563;-89
2023/10/12 02:00:26;;;;;;;12.07;5.75;;;17.20;99.90;;;;;;5018821;28;20269;-89
2023/10/12 02:06:00;;;;;;;11.43;5.95;;;17.00;99.90;;;;;;5003073;28;20189;-88
2023/10/12 02:08:52;;;;;;;12.60;6.65;;;17.00;99.90;;;;;;5036322;28;20585;-89
2023/10/12 02:13:48;;;;;;;13.90;6.03;;;17.00;99.90;;;;;;5036493;28;20511;-92
2023/10/12 02:16:23;;;;;;;9.95;6.15;;;17.00;99.90;;;;;;5018093;28;20255;-87
2023/10/12 02:18:55;;;;;;;13.55;6.70;;;16.90;99.90;;;;;;5017951;28;20177;-89
2023/10/12 02:21:22;;;;;;;12.93;6.93;;;16.90;99.90;;;;;;5035763;28;20167;-89
2023/10/12 02:24:10;;;;;;;10.75;6.68;;;16.90;99.90;;;;;;5017821;28;20171;-88
2023/10/12 02:26:37;;;;;;;10.77;7.45;;;16.80;99.90;;;;;;5017848;28;20179;-88
2023/10/12 02:31:34;;;;;;;14.20;7.50;;;16.80;99.90;;;;;;5035822;28;20186;-90
2023/10/12 02:34:01;;;;;;;17.80;8.40;;;16.70;99.90;;;;;;5017734;28;20189;-91
2023/10/12 02:36:26;;;;;;;15.27;7.97;;;16.70;99.90;;;;;;5035391;28;20201;-89
2023/10/12 02:39:01;;;;;;;14.65;7.88;;;16.60;99.90;;;;;;5016750;28;20318;-88
2023/10/12 02:41:27;;;;;;;12.38;7.90;;;16.50;99.90;;;;;;5017530;28;20192;-87
2023/10/12 02:44:11;;;;;;;15.35;7.63;;;16.50;99.90;;;;;;5035227;28;20163;-87
2023/10/12 02:46:41;;;;;;;12.85;7.45;;;16.50;99.90;;;;;;5017495;28;20181;-89
2023/10/12 02:49:06;;;;;;;12.20;7.90;;;16.40;99.90;;;;;;5017701;28;20174;-91
2023/10/12 02:51:39;;;;;;;14.77;7.72;;;16.40;99.90;;;;;;5017425;28;20274;-88
2023/10/12 02:54:05;;;;;;;11.82;7.20;;;16.40;99.90;;;;;;5017296;28;20171;-88
2023/10/12 02:56:31;;;;;;;14.60;7.38;;;16.40;99.90;;;;;;5017464;28;20181;-88
2023/10/12 02:59:03;;;;;;;15.52;7.22;;;16.30;99.90;;;;;;5017268;28;20213;-90
2023/10/12 03:01:29;;;;;;;17.65;7.10;;;16.30;99.90;;;;;;5017333;28;20183;-89
2023/10/12 03:03:56;;;;;;;13.55;6.45;;;16.20;99.90;;;;;;5017602;28;20270;-88
2023/10/12 03:06:23;;;;;;;14.43;6.55;;;16.20;99.90;;;;;;5035382;28;20178;-89
2023/10/12 03:11:35;;;;;;;18.08;7.28;;;16.10;99.90;;;;;;5034947;28;20609;-90
2023/10/12 03:14:13;;;;;;;13.48;6.63;;;16.00;99.90;;;;;;5017063;28;20179;-88
2023/10/12 03:16:43;;;;;;;14.60;6.75;;;16.00;99.90;;;;;;5017013;28;20174;-87
2023/10/12 03:21:46;;;;;;;12.00;7.32;;;16.00;99.90;;;;;;5034726;28;20173;-85
2023/10/12 03:24:14;;;;;;;12.80;6.97;;;16.00;99.90;;;;;;5016611;28;20273;-89
2023/10/12 03:26:40;;;;;;;14.75;7.40;;;16.00;99.90;;;;;;5016507;28;20202;-86
2023/10/12 03:31:36;;;;;;;12.95;7.38;;;15.90;99.90;;;;;;5034573;28;20659;-86
2023/10/12 03:34:05;;;;;;;9.70;6.25;;;15.80;99.90;;;;;;5016556;28;20231;-87
2023/10/12 03:36:33;;;;;;;11.88;6.43;;;15.90;99.90;;;;;;5034148;28;20174;-86
2023/10/12 03:41:46;;;;;;;11.75;6.65;;;15.80;99.90;;;;;;5014778;28;20171;-86
2023/10/12 03:47:29;;;;;;;13.75;6.75;;;15.70;99.90;;;;;;5005721;28;20194;-84
2023/10/12 03:52:21;;;;;;;13.52;6.28;;;15.70;99.90;;;;;;5018069;28;20163;-84
2023/10/12 03:57:50;;;;;;;13.45;6.40;;;15.50;99.90;;;;;;5013614;28;20243;-84
2023/10/12 04:02:53;;;;;;;9.77;6.05;;;15.40;99.90;;;;;;5018231;28;20168;-84
2023/10/12 04:05:22;;;;;;;11.18;5.57;;;15.40;99.90;;;;;;5017157;28;20183;-84
2023/10/12 04:11:21;;;;;;;5.82;2.95;;;15.40;99.90;;;;;;5018333;28;20171;-85
2023/10/12 04:19:02;;;;;;;7.93;2.78;;;15.20;99.90;;;;;;5017940;28;20532;-84
2023/10/12 04:21:33;;;;;;;4.25;2.70;;;15.20;99.90;;;;;;5018023;28;20520;-84
2023/10/12 04:29:08;;;;;;;4.75;2.85;;;15.10;99.90;;;;;;5017693;28;20171;-84
2023/10/12 04:31:40;;;;;;;6.35;2.72;;;15.10;99.90;;;;;;5016429;28;20187;-84
2023/10/12 04:34:08;;;;;;;7.28;2.70;;;15.10;99.90;;;;;;5017519;28;20155;-84
2023/10/12 04:41:42;;;;;;;8.00;2.95;;;15.00;99.90;;;;;;5037404;28;20656;-86
2023/10/12 04:46:51;;;;;;;6.32;3.00;;;15.00;99.90;;;;;;5037414;28;20198;-84
2023/10/12 04:51:50;;;;;;;5.88;3.33;;;15.00;99.90;;;;;;5037082;28;20175;-85
2023/10/12 04:54:17;;;;;;;6.47;3.58;;;15.00;99.90;;;;;;5036915;28;20206;-84
2023/10/12 04:57:31;;;;;;;9.63;3.80;;;14.90;99.90;;;;;;5036915;28;20178;-84
2023/10/12 04:59:43;;;;;;;9.55;4.38;;;14.90;99.90;;;;;;5022648;28;20213;-85
2023/10/12 05:05:14;;;;;;;9.13;6.40;;;14.90;99.90;;;;;;5036792;28;20175;-85
2023/10/12 05:09:53;;;;;;;13.35;8.38;;;15.00;99.90;;;;;;5036708;28;20167;-84
2023/10/12 05:12:23;;;;;;;16.33;10.10;;;15.00;99.90;;;;;;5036574;28;20197;-85
2023/10/12 05:14:55;;;;;;;17.08;10.20;;;15.00;99.90;;;;;;5036499;28;20213;-85
2023/10/12 05:17:24;;;;;;;18.30;10.75;;;15.00;99.90;;;;;;5036554;28;20177;-84
2023/10/12 05:19:53;;;;;;;15.27;10.07;;;14.90;99.90;;;;;;5036608;28;20631;-83
2023/10/12 05:22:20;;;;;;;17.25;10.88;;;15.00;99.90;;;;;;5035121;28;20679;-83
2023/10/12 05:24:49;;;;;;;18.27;11.05;;;15.00;99.90;;;;;;5036471;28;20179;-84
2023/10/12 05:27:38;;;;;;;14.20;9.93;;;15.00;99.90;;;;;;5036377;28;20174;-84
2023/10/12 05:30:13;;;;;;;13.13;8.73;;;14.90;99.90;;;;;;5018590;28;20190;-84
2023/10/12 05:32:43;;;;;;;12.32;7.43;;;14.90;99.90;;;;;;5036319;28;20162;-84
2023/10/12 05:35:53;;;;;;;15.77;8.05;;;14.90;99.90;;;;;;5018262;28;20210;-85
2023/10/12 05:37:58;;;;;;;13.82;8.00;;;14.90;99.90;;;;;;5022597;28;20644;-82
2023/10/12 05:40:35;;;;;;;10.48;6.85;;;14.90;99.90;;;;;;5018504;28;20183;-84
2023/10/12 05:43:00;;;;;;;12.13;6.97;;;14.90;99.90;;;;;;5018290;28;20179;-83
2023/10/12 05:45:31;;;;;;;13.32;7.47;;;14.90;99.90;;;;;;5035985;28;20190;-84
2023/10/12 05:47:57;;;;;;;11.93;6.55;;;14.90;99.90;;;;;;5018289;28;20510;-83
2023/10/12 05:50:26;;;;;;;10.90;6.63;;;14.90;99.90;;;;;;5035900;28;20170;-83
2023/10/12 05:52:53;;;;;;;12.70;6.57;;;14.90;99.90;;;;;;5018273;28;20210;-83
2023/10/12 05:55:22;;;;;;;15.40;7.85;;;14.90;99.90;;;;;;5017961;28;20225;-86
2023/10/12 05:57:48;;;;;;;13.18;7.22;;;14.90;99.90;;;;;;5035818;28;20194;-84
2023/10/12 06:02:59;;;;;;;16.95;7.95;;;14.80;99.90;;;;;;5036089;28;20174;-83
2023/10/12 06:05:24;;;;;;;16.85;8.50;;;14.80;99.90;;;;;;5035622;28;20175;-83
2023/10/12 06:07:50;;;;;;;14.68;7.72;;;14.80;99.90;;;;;;5035690;28;20605;-83
2023/10/12 06:10:16;;;;;;;15.73;8.68;;;14.80;99.90;;;;;;5035531;28;20174;-83
2023/10/12 06:12:42;;;;;;;15.90;8.57;;;14.80;99.90;;;;;;5035602;28;20178;-84
2023/10/12 06:15:10;;;;;;;14.38;9.10;;;14.80;99.90;;;;;;5034325;28;20220;-84
2023/10/12 06:17:39;;;;;;;13.80;9.07;;;14.80;99.90;;;;;;5017748;28;20183;-84
2023/10/12 06:20:14;;;;;;;14.38;8.70;;;14.80;99.90;;;;;;5035334;28;20197;-84
2023/10/12 06:22:40;;;;;;;16.83;8.65;;;14.80;99.90;;;;;;5035334;28;20178;-83
2023/10/12 06:25:10;;;;;;;15.55;8.38;;;14.90;99.90;;;;;;5035314;28;20233;-83
2023/10/12 06:27:37;;;;;;;13.63;7.95;;;14.90;99.90;;;;;;5017639;28;20587;-82
2023/10/12 06:30:16;;;;;;;16.77;8.45;;;14.90;99.90;;;;;;5035158;28;20170;-84
2023/10/12 06:32:42;;;;;;;11.85;7.57;;;14.90;99.90;;;;;;5017563;28;20193;-83
2023/10/12 06:43:57;;;;;;;2.42;1.63;;;14.90;99.90;;;;;;4995581;28;20230;-84
2023/10/12 06:45:56;;;;;;;3.28;1.40;;;14.70;99.90;;;;;;4995450;28;20270;-83
2023/10/12 06:51:11;;;;;;;1.80;0.93;;;14.60;99.90;;;;;;4995897;28;20171;-83
2023/10/12 06:53:38;;;;;;;1.40;0.70;;;14.50;99.90;;;;;;4994283;28;20175;-87
2023/10/12 06:59:07;;;;;;;2.67;0.80;;;14.40;99.90;;;;;;4995445;28;20552;-84
2023/10/12 07:04:19;;;;;;;2.15;0.98;;;14.30;99.90;;;;;;4995603;28;20164;-84
2023/10/12 07:07:00;;;;;;;1.75;0.57;;;14.20;99.90;;;;;;4995270;28;20252;-84
2023/10/12 07:09:37;;;;;;;2.28;0.90;;;14.20;99.90;;;;;;4995207;28;20167;-83
2023/10/12 07:12:04;;;;;;;2.78;0.88;;;14.20;99.90;;;;;;4995405;28;20555;-83
2023/10/12 07:15:13;;;;;;;4.40;1.02;;;14.10;99.90;;;;;;4995259;28;20279;-87
2023/10/12 07:17:31;;;;;;;2.03;1.05;;;14.10;99.90;;;;;;4989606;28;20242;-84
2023/10/12 07:19:57;;;;;;;2.10;0.70;;;13.90;99.90;;;;;;4995046;28;20160;-82
2023/10/12 07:22:23;;;;;;;3.20;1.00;;;14.00;99.90;;;;;;4995100;28;20274;-81
2023/10/12 07:24:53;;;;;;;5.57;1.30;;;13.90;99.90;;;;;;4993582;28;20270;-84
2023/10/12 07:27:23;;;;;;;5.97;1.05;;;13.90;99.90;;;;;;4993549;28;20203;-83
2023/10/12 07:30:22;;;;;;;3.38;1.20;;;13.90;99.90;;;;;;4994874;28;20223;-82
2023/10/12 07:32:59;;;;;;;5.85;1.27;;;13.80;99.90;;;;;;4994825;28;20160;-82
2023/10/12 07:35:34;;;;;;;4.55;1.10;;;13.80;99.90;;;;;;4993648;28;20207;-86
2023/10/12 07:38:13;;;;;;;5.93;1.73;;;13.80;99.90;;;;;;5000374;28;20590;-86
2023/10/12 07:40:51;;;;;;;6.82;1.77;;;13.70;99.90;;;;;;5034335;28;20186;-83
2023/10/12 07:43:18;;;;;;;2.67;1.02;;;13.70;99.90;;;;;;5016530;28;20166;-82
2023/10/12 07:45:51;;;;;;;6.03;1.30;;;13.60;99.90;;;;;;5034166;28;20202;-83
2023/10/12 07:48:31;;;;;;;3.28;1.05;;;13.60;99.90;;;;;;5034283;28;20201;-85
2023/10/12 07:51:24;;;;;;;5.03;1.42;;;13.60;99.90;;;;;;5016625;28;20201;-85
2023/10/12 07:53:57;;;;;;;6.47;1.55;;;13.60;99.90;;;;;;5033502;28;20240;-87
2023/10/12 07:56:24;;;;;;;6.45;1.50;;;13.60;99.90;;;;;;5016484;28;20210;-84
2023/10/12 07:58:57;;;;;;;3.28;1.10;;;13.60;99.90;;;;;;5034025;28;20177;-88
2023/10/12 08:03:59;;;;;;;5.95;1.88;;;13.70;99.90;;;;;;5034100;28;20159;-83
2023/10/12 08:06:42;;;;;;;8.88;1.80;;;13.70;99.90;;;;;;5034010;28;20226;-85
2023/10/12 08:09:33;;;;;;;5.65;1.58;;;13.70;99.90;;;;;;5034069;28;20170;-83
2023/10/12 08:12:23;;;;;;;6.05;1.30;;;13.80;99.90;;;;;;5033952;28;20166;-86
2023/10/12 08:14:44;;;;;;;4.32;1.63;;;13.90;99.90;;;;;;5033784;28;20257;-86
2023/10/12 08:17:26;;;;;;;6.32;1.33;;;13.90;99.90;;;;;;5033885;28;20175;-88
2023/10/12 08:20:45;;;;;;;6.68;1.70;;;13.80;99.90;;;;;;5033896;28;20163;-82
2023/10/12 08:22:46;;;;;;;8.90;1.70;;;13.80;99.90;;;;;;5033180;28;20277;-86
2023/10/12 08:25:13;;;;;;;5.20;1.20;;;13.80;99.90;;;;;;5016261;28;20186;-88
2023/10/12 08:27:52;;;;;;;6.55;1.30;;;13.80;99.90;;;;;;5033921;28;20223;-84
2023/10/12 08:30:48;;;;;;;9.75;1.90;;;13.90;99.90;;;;;;5033851;28;20577;-85
2023/10/12 08:33:14;;;;;;;6.45;1.60;;;13.80;99.90;;;;;;5033710;28;20531;-85
2023/10/12 08:36:23;;;;;;;6.07;1.80;;;13.80;99.90;;;;;;5033670;28;20202;-85
2023/10/12 08:38:40;;;;;;;7.47;1.70;;;13.80;99.90;;;;;;5035494;28;20226;-84
2023/10/12 08:43:47;;;;;;;6.75;1.77;;;13.80;99.90;;;;;;5037816;28;20597;-85
2023/10/12 08:46:20;;;;;;;8.10;2.00;;;13.80;99.90;;;;;;5019629;28;20605;-89
2023/10/12 08:49:05;;;;;;;6.88;1.95;;;13.80;99.90;;;;;;5037461;28;20171;-87
2023/10/12 08:51:32;;;;;;;7.05;1.50;;;13.80;99.90;;;;;;5037260;28;20162;-83
2023/10/12 08:54:01;;;;;;;7.13;1.52;;;13.80;99.90;;;;;;5037195;28;20170;-87
2023/10/12 08:56:32;;;;;;;7.15;1.48;;;13.90;99.90;;;;;;5020129;28;20285;-82
2023/10/12 08:59:04;;;;;;;5.13;1.75;;;13.90;99.90;;;;;;5037119;28;20177;-86
2023/10/12 09:01:35;;;;;;;5.28;1.60;;;13.80;99.90;;;;;;5019351;28;20179;-85
2023/10/12 09:04:03;;;;;;;7.60;1.60;;;13.90;99.90;;;;;;5037009;28;20155;-84
2023/10/12 09:09:01;;;;;;;7.43;1.73;;;13.80;99.90;;;;;;5037118;28;20162;-87
2023/10/12 09:11:33;;;;;;;7.65;1.67;;;13.80;99.90;;;;;;5036865;28;20575;-83
2023/10/12 09:14:00;;;;;;;10.88;1.67;;;13.80;99.90;;;;;;5036753;28;20510;-84
2023/10/12 09:16:27;;;;;;;9.82;1.95;;;13.80;99.90;;;;;;5019508;28;20345;-83
2023/10/12 09:18:59;;;;;;;7.30;1.77;;;13.80;99.90;;;;;;5036540;28;20194;-86
2023/10/12 09:21:38;;;;;;;7.78;1.95;;;13.90;99.90;;;;;;5036527;28;20171;-83
2023/10/12 09:24:06;;;;;;;8.68;1.80;;;13.80;99.90;;;;;;5018837;28;20528;-82
2023/10/12 09:26:34;;;;;;;7.15;1.88;;;13.80;99.90;;;;;;5036736;28;20192;-84
2023/10/12 09:36:44;;;;;;;10.50;2.05;;;13.80;99.90;;;;;;5036720;28;20186;-87
2023/10/12 09:39:14;;;;;;;8.38;1.80;;;13.90;99.90;;;;;;5036110;28;20265;-85
2023/10/12 09:41:42;;;;;;;6.60;1.30;;;13.80;99.90;;;;;;5036346;28;20162;-87
2023/10/12 09:44:12;;;;;;;10.43;2.08;;;13.80;99.90;;;;;;5036404;28;20625;-85
2023/10/12 09:46:48;;;;;;;9.00;1.65;;;13.90;99.90;;;;;;5036602;28;20593;-85
2023/10/12 09:49:22;;;;;;;8.13;1.80;;;13.90;99.90;;;;;;5018235;28;20178;-84
2023/10/12 09:51:59;;;;;;;9.68;2.00;;;13.90;99.90;;;;;;5036161;28;20159;-83
2023/10/12 09:55:06;;;;;;;9.20;1.92;;;13.90;99.90;;;;;;5036029;28;20582;-83
2023/10/12 09:57:36;;;;;;;10.48;1.80;;;13.80;99.90;;;;;;5025514;28;20327;-84
2023/10/12 10:00:18;;;;;;;5.15;1.67;;;13.80;99.90;;;;;;5035914;28;20171;-82
2023/10/12 10:02:49;;;;;;;8.45;1.98;;;13.80;99.90;;;;;;5036016;28;20163;-86
2023/10/12 10:07:55;;;;;;;9.05;1.95;;;14.00;99.90;;;;;;5036236;28;20171;-82
2023/10/12 10:10:32;;;;;;;9.63;1.98;;;14.00;99.90;;;;;;5035964;28;20177;-83
2023/10/12 10:13:12;;;;;;;9.80;2.05;;;14.10;99.90;;;;;;5018001;28;20220;-85
2023/10/12 10:15:57;;;;;;;9.20;2.10;;;14.10;99.90;;;;;;5017736;28;20206;-89
2023/10/12 10:18:25;;;;;;;9.18;2.10;;;14.10;99.90;;;;;;5035661;28;20166;-83
2023/10/12 10:21:14;;;;;;;9.60;1.73;;;14.20;99.90;;;;;;5035466;28;20171;-82
2023/10/12 10:23:48;;;;;;;9.20;1.73;;;14.20;99.90;;;;;;5035344;28;20162;-83
2023/10/12 10:28:55;;;;;;;8.35;1.67;;;14.40;99.90;;;;;;5035567;28;20174;-82
2023/10/12 10:31:43;;;;;;;5.82;1.70;;;14.40;99.90;;;;;;5035298;28;20158;-83
2023/10/12 10:34:14;;;;;;;9.05;2.20;;;14.50;99.90;;;;;;5035234;28;20159;-81
2023/10/12 10:36:44;;;;;;;5.95;1.63;;;14.50;99.90;;;;;;5035507;28;20185;-84
2023/10/12 10:41:46;;;;;;;7.82;1.90;;;14.40;99.90;;;;;;5015684;28;20673;-86
2023/10/12 10:44:16;;;;;;;5.72;1.40;;;14.50;99.90;;;;;;5015298;28;20600;-81
2023/10/12 10:46:46;;;;;;;8.27;1.98;;;14.40;99.90;;;;;;5015261;28;20594;-86
2023/10/12 10:49:16;;;;;;;6.18;1.52;;;14.50;99.90;;;;;;5015199;28;20618;-81
2023/10/12 10:52:01;;;;;;;8.40;1.40;;;14.60;99.90;;;;;;5015413;28;20531;-82
2023/10/12 10:54:27;;;;;;;10.35;2.05;;;14.70;99.90;;;;;;5014208;28;20171;-81
2023/10/12 10:56:58;;;;;;;10.00;1.98;;;14.80;99.90;;;;;;5014970;28;20524;-81
2023/10/12 10:59:24;;;;;;;8.55;2.08;;;14.80;99.90;;;;;;5013774;28;20225;-83
2023/10/12 11:01:50;;;;;;;8.32;1.80;;;14.80;99.90;;;;;;5013077;28;20559;-81
2023/10/12 11:04:41;;;;;;;8.60;2.05;;;14.90;99.90;;;;;;5014909;28;20167;-82
2023/10/12 11:07:15;;;;;;;7.05;2.13;;;14.90;99.90;;;;;;5014839;28;20164;-82
2023/10/12 11:10:05;;;;;;;10.18;2.35;;;14.90;99.90;;;;;;5014861;28;20169;-83
2023/10/12 11:12:32;;;;;;;6.30;1.77;;;14.90;99.90;;;;;;5015070;28;20167;-82
2023/10/12 11:15:05;;;;;;;10.10;2.00;;;15.00;99.90;;;;;;5014609;28;20206;-82
2023/10/12 11:17:40;;;;;;;11.90;2.40;;;15.10;99.90;;;;;;5014758;28;20170;-82
2023/10/12 11:20:38;;;;;;;7.95;1.90;;;15.10;99.90;;;;;;5014947;28;20213;-82
2023/10/12 11:23:08;;;;;;;10.55;2.15;;;15.10;99.90;;;;;;5014517;28;20518;-81
2023/10/12 11:25:39;;;;;;;6.28;1.83;;;15.10;99.90;;;;;;5013656;28;20527;-83
2023/10/12 11:28:22;;;;;;;11.23;1.80;;;15.20;99.90;;;;;;5014522;28;20629;-82
2023/10/12 11:30:51;;;;;;;9.90;1.98;;;15.30;99.90;;;;;;5014756;28;20206;-82
2023/10/12 11:33:23;;;;;;;7.53;2.00;;;15.40;99.90;;;;;;5014452;28;20175;-82
2023/10/12 11:35:49;;;;;;;9.50;2.13;;;15.40;99.90;;;;;;5014496;28;20203;-82
2023/10/12 11:38:20;;;;;;;9.02;1.63;;;15.40;99.90;;;;;;5019155;28;20240;-82
2023/10/12 11:40:55;;;;;;;8.40;1.85;;;15.50;99.90;;;;;;5034090;28;20261;-82
2023/10/12 11:43:21;;;;;;;15.40;2.38;;;15.50;99.90;;;;;;5016388;28;20520;-83
2023/10/12 11:46:01;;;;;;;7.30;1.90;;;15.40;99.90;;;;;;5034035;28;20159;-82
2023/10/12 11:48:28;;;;;;;10.43;1.98;;;15.40;99.90;;;;;;5034289;28;20173;-82
2023/10/12 11:50:57;;;;;;;10.40;2.33;;;15.30;99.90;;;;;;5034123;28;20216;-82
2023/10/12 11:53:25;;;;;;;7.53;1.65;;;15.40;99.90;;;;;;5034045;28;20508;-89
2023/10/12 11:56:22;;;;;;;9.02;1.73;;;15.30;99.90;;;;;;5034057;28;20209;-83
2023/10/12 11:58:55;;;;;;;9.57;2.10;;;15.30;99.90;;;;;;5002775;28;20163;-84
2023/10/12 12:01:33;;;;;;;11.27;1.95;;;15.30;99.90;;;;;;5034027;28;20193;-82
2023/10/12 12:04:02;;;;;;;12.38;2.35;;;15.30;99.90;;;;;;5034104;28;20189;-85
2023/10/12 12:06:32;;;;;;;10.50;1.80;;;15.30;99.90;;;;;;5034205;28;20155;-83
2023/10/12 12:08:59;;;;;;;8.35;1.73;;;15.40;99.90;;;;;;5034271;28;20182;-83
2023/10/12 12:11:31;;;;;;;14.57;2.67;;;15.40;99.90;;;;;;5000743;28;20175;-83
2023/10/12 12:13:57;;;;;;;13.88;2.25;;;15.40;99.90;;;;;;5037995;28;20216;-83
2023/10/12 12:16:23;;;;;;;7.18;1.60;;;15.40;99.90;;;;;;5037902;28;20213;-87
2023/10/12 12:18:51;;;;;;;15.02;1.92;;;15.40;99.90;;;;;;5020113;28;20178;-81
2023/10/12 12:21:29;;;;;;;10.48;1.80;;;15.30;99.90;;;;;;5037816;28;20686;-82
2023/10/12 12:23:56;;;;;;;7.00;2.03;;;15.30;99.90;;;;;;5020037;28;20174;-82
2023/10/12 12:26:24;;;;;;;9.10;1.90;;;15.20;99.90;;;;;;5037854;28;20170;-83
2023/10/12 12:29:02;;;;;;;13.70;2.92;;;15.10;99.90;;;;;;5037663;28;20189;-83
2023/10/12 12:31:32;;;;;;;11.70;1.88;;;15.00;99.90;;;;;;5037449;28;20155;-82
2023/10/12 12:33:58;;;;;;;10.13;1.83;;;14.80;99.90;;;;;;5037451;28;20253;-86
2023/10/12 12:36:24;;;;;;;11.02;1.92;;;14.70;99.90;;;;;;5037424;28;20215;-83
2023/10/12 12:39:33;;;;;;;13.65;2.08;;;14.60;99.90;;;;;;5037302;28;20218;-84
2023/10/12 12:41:39;;;;;;;8.38;2.00;;;14.60;99.90;;;;;;5024102;28;20187;-85
2023/10/12 12:44:08;;;;;;;9.68;1.75;;;14.50;99.90;;;;;;5037367;28;20516;-84
2023/10/12 12:46:34;;;;;;;6.47;1.50;;;14.40;99.90;;;;;;5037595;28;20167;-89
2023/10/12 12:49:00;;;;;;;6.90;1.60;;;14.30;99.90;;;;;;5019514;28;20193;-81
2023/10/12 12:51:26;;;;;;;6.93;1.50;;;14.40;99.90;;;;;;5019391;28;20262;-82
2023/10/12 12:53:53;;;;;;;12.18;2.00;;;14.40;99.90;;;;;;5037057;28;20261;-82
2023/10/12 12:56:25;;;;;;;7.90;1.52;;;14.40;99.90;;;;;;5019445;28;20218;-85
2023/10/12 12:58:51;;;;;;;9.43;2.10;;;14.50;99.90;;;;;;5037079;28;20213;-84
2023/10/12 13:01:25;;;;;;;8.50;2.25;;;14.50;99.90;;;;;;5037048;28;20171;-83
2023/10/12 13:03:57;;;;;;;11.07;1.80;;;14.40;99.90;;;;;;5037417;28;20166;-84
2023/10/12 13:06:26;;;;;;;8.82;2.17;;;14.50;99.90;;;;;;5037027;28;20155;-85
2023/10/12 13:08:51;;;;;;;8.40;1.70;;;14.40;99.90;;;;;;5036925;28;20183;-82
2023/10/12 13:11:18;;;;;;;9.18;1.67;;;14.50;99.90;;;;;;5019008;28;20682;-82
2023/10/12 13:13:44;;;;;;;12.20;2.10;;;14.50;99.90;;;;;;5018936;28;20273;-83
2023/10/12 13:16:12;;;;;;;8.43;1.92;;;14.50;99.90;;;;;;5018874;28;20301;-82
2023/10/12 13:18:40;;;;;;;12.90;2.22;;;14.50;99.90;;;;;;5036867;28;20510;-84
2023/10/12 13:21:14;;;;;;;9.77;2.08;;;14.40;99.90;;;;;;5036519;28;20261;-82
2023/10/12 13:23:40;;;;;;;9.98;2.10;;;14.40;99.90;;;;;;5018195;28;20270;-82
2023/10/12 13:26:12;;;;;;;15.13;1.70;;;14.40;99.90;;;;;;5018707;28;20633;-82
2023/10/12 13:28:38;;;;;;;10.60;2.30;;;14.30;99.90;;;;;;5036417;28;20186;-83
2023/10/12 13:31:05;;;;;;;8.13;2.22;;;14.30;99.90;;;;;;5018834;28;20674;-83
2023/10/12 13:33:31;;;;;;;13.07;2.35;;;14.30;99.90;;;;;;5036309;28;20520;-82
2023/10/12 13:35:58;;;;;;;10.40;2.28;;;14.30;99.90;;;;;;5036337;28;20282;-83
2023/10/12 13:38:29;;;;;;;11.27;1.85;;;14.30;99.90;;;;;;5035726;28;20230;-84
2023/10/12 13:40:55;;;;;;;9.52;1.50;;;14.30;99.90;;;;;;5018622;28;20521;-85
2023/10/12 13:43:30;;;;;;;9.10;2.00;;;14.40;99.90;;;;;;5036375;28;20167;-86
2023/10/12 13:45:56;;;;;;;12.02;2.33;;;14.30;99.90;;;;;;5036225;28;20208;-86
2023/10/12 13:48:30;;;;;;;8.68;2.22;;;14.40;99.90;;;;;;5036375;28;20262;-87
2023/10/12 13:51:01;;;;;;;9.55;1.70;;;14.30;99.90;;;;;;5036250;28;20174;-82
2023/10/12 13:53:36;;;;;;;9.75;2.10;;;14.20;99.90;;;;;;5018311;28;20170;-85
2023/10/12 13:56:07;;;;;;;11.50;1.98;;;14.20;99.90;;;;;;5035991;28;20212;-84
2023/10/12 13:58:36;;;;;;;13.38;2.03;;;14.20;99.90;;;;;;5018591;28;20506;-84
2023/10/12 14:01:13;;;;;;;7.57;1.63;;;14.20;99.90;;;;;;5035936;28;20262;-88
2023/10/12 14:03:41;;;;;;;12.38;2.10;;;14.30;99.90;;;;;;5018293;28;20228;-84
2023/10/12 14:06:07;;;;;;;7.53;1.80;;;14.30;99.90;;;;;;5018091;28;20606;-84
2023/10/12 14:08:40;;;;;;;6.43;1.50;;;14.20;99.90;;;;;;5035759;28;20177;-85
2023/10/12 14:11:06;;;;;;;15.85;2.30;;;14.20;99.90;;;;;;5018757;28;20170;-85
2023/10/12 14:13:35;;;;;;;8.73;1.90;;;14.20;99.90;;;;;;5035882;28;20272;-84
2023/10/12 14:16:01;;;;;;;11.73;2.35;;;14.10;99.90;;;;;;5035467;28;20206;-83
2023/10/12 14:18:31;;;;;;;6.80;1.70;;;14.10;99.90;;;;;;5035507;28;20495;-82
2023/10/12 14:20:57;;;;;;;9.27;2.55;;;14.10;99.90;;;;;;5017717;28;20278;-83
2023/10/12 14:23:26;;;;;;;9.77;1.60;;;14.10;99.90;;;;;;5035283;28;20167;-83
2023/10/12 14:25:54;;;;;;;10.25;1.65;;;14.10;99.90;;;;;;5017638;28;20563;-84
2023/10/12 14:28:20;;;;;;;7.15;1.75;;;14.00;99.90;;;;;;5035329;28;20217;-83
2023/10/12 14:30:50;;;;;;;8.07;2.08;;;14.00;99.90;;;;;;5035193;28;20178;-83
2023/10/12 14:33:21;;;;;;;8.75;1.83;;;14.00;99.90;;;;;;5035158;28;20167;-81
2023/10/12 14:35:48;;;;;;;11.73;1.98;;;14.00;99.90;;;;;;5034144;28;20298;-83
2023/10/12 14:38:14;;;;;;;6.07;1.80;;;14.00;99.90;;;;;;5034936;28;20226;-84
2023/10/12 14:40:46;;;;;;;13.10;2.65;;;14.10;99.90;;;;;;5034989;28;20181;-82
2023/10/12 14:43:14;;;;;;;9.05;2.40;;;14.00;99.90;;;;;;5034980;28;20167;-83
2023/10/12 14:46:03;;;;;;;13.10;2.15;;;14.00;99.90;;;;;;5017247;28;20202;-84
2023/10/12 14:48:28;;;;;;;8.48;2.00;;;14.00;99.90;;;;;;5034970;28;20174;-83
2023/10/12 14:51:16;;;;;;;12.13;2.17;;;14.00;99.90;;;;;;5034944;28;20496;-83
2023/10/12 14:53:47;;;;;;;9.57;2.05;;;13.90;99.90;;;;;;5034843;28;20169;-82